Time;durP1;ratioP1;P1;durP2;ratioP2;P2;SDS_P1;SDS_P2;PMS_P1;PMS_P2;Temp;Humidity;BMP_temperature;BMP_pressure;BME280_temperature;BME280_humidity;BME280_pressure;Samples;Min_cycle;Max_cycle;Signal;HPM_P1;HPM_P2
2021/01/15 00:00:46;;;;;;;35.40;17.50;;;0.80;2201.60;;;;;;4866621;29;20510;-80
2021/01/15 00:17:02;;;;;;;61.47;30.80;;;0.80;2201.60;;;;;;4890634;29;20036;-80
2021/01/15 00:20:01;;;;;;;60.55;29.67;;;0.90;2201.60;;;;;;4887096;29;20421;-80
2021/01/15 00:23:02;;;;;;;53.42;25.13;;;0.90;2201.60;;;;;;4871509;29;20029;-82
2021/01/15 00:29:48;;;;;;;47.47;23.15;;;25.60;2201.60;;;;;;4875623;29;20124;-81
2021/01/15 00:36:58;;;;;;;37.13;19.58;;;0.90;2201.60;;;;;;4903288;29;20108;-81
2021/01/15 00:54:34;;;;;;;28.20;16.52;;;0.90;2201.60;;;;;;4809795;29;20057;-81
2021/01/15 00:58:20;;;;;;;35.78;18.00;;;0.80;2201.60;;;;;;4777508;30;20055;-80
2021/01/15 01:04:33;;;;;;;40.15;20.17;;;0.80;2201.60;;;;;;4776898;29;20042;-80
2021/01/15 01:07:43;;;;;;;42.15;21.17;;;0.90;2201.60;;;;;;4796485;29;20504;-80
2021/01/15 01:13:54;;;;;;;;;;;0.80;2201.60;;;;;;4806568;29;20089;-80
2021/01/15 01:17:22;;;;;;;22.80;14.32;;;0.90;2201.60;;;;;;4798691;29;19916;-81
2021/01/15 01:20:38;;;;;;;26.67;14.15;;;0.80;2201.60;;;;;;4811131;29;20146;-80
2021/01/15 01:24:04;;;;;;;33.90;18.30;;;0.80;2201.60;;;;;;4779624;30;20051;-81
2021/01/15 01:30:30;;;;;;;20.88;12.80;;;0.90;2201.60;;;;;;4846951;29;20067;-82
2021/01/15 01:34:05;;;;;;;96.90;31.17;;;0.80;2201.60;;;;;;4892148;29;20033;-82
2021/01/15 01:37:41;;;;;;;56.05;23.17;;;0.70;2201.60;;;;;;4952702;29;20051;-80
2021/01/15 01:44:58;;;;;;;30.83;16.70;;;0.80;2201.60;;;;;;4938022;29;20091;-82
2021/01/15 01:58:41;;;;;;;34.80;17.42;;;0.80;2201.60;;;;;;4899184;29;20061;-81
2021/01/15 02:06:03;;;;;;;28.38;15.45;;;0.80;2201.60;;;;;;4890049;29;20040;-82
2021/01/15 02:13:04;;;;;;;37.22;18.05;;;0.80;2201.60;;;;;;4811794;29;20033;-83
2021/01/15 02:23:25;;;;;;;19.15;11.00;;;0.80;2201.60;;;;;;4782982;30;20523;-79
2021/01/15 02:27:03;;;;;;;30.75;16.48;;;0.70;2201.60;;;;;;4805205;29;20080;-82
2021/01/15 02:41:17;;;;;;;30.27;15.70;;;0.70;2201.60;;;;;;4814425;29;20139;-81
2021/01/15 02:51:26;;;;;;;35.47;16.98;;;0.60;2201.60;;;;;;4865751;29;20082;-80
2021/01/15 02:55:15;;;;;;;39.25;20.05;;;0.70;2201.60;;;;;;4868030;29;20029;-81
2021/01/15 02:58:58;;;;;;;44.08;19.77;;;0.70;2201.60;;;;;;4866761;29;20056;-81
2021/01/15 03:06:17;;;;;;;32.50;16.13;;;0.60;2201.60;;;;;;4896892;29;20044;-80
2021/01/15 03:09:46;;;;;;;33.53;16.77;;;0.60;2201.60;;;;;;4856346;29;20049;-81
2021/01/15 03:13:22;;;;;;;30.95;16.10;;;0.70;2201.60;;;;;;4875633;29;20066;-80
2021/01/15 03:17:05;;;;;;;23.10;12.50;;;0.60;2201.60;;;;;;4818309;29;20038;-80
2021/01/15 03:26:45;;;;;;;15.20;10.30;;;0.60;2201.60;;;;;;4812323;29;20070;-79
2021/01/15 03:33:23;;;;;;;78.07;31.52;;;0.60;2201.60;;;;;;4842555;29;20045;-80
2021/01/15 03:40:30;;;;;;;49.70;21.63;;;0.60;2201.60;;;;;;4843762;29;20052;-80
2021/01/15 03:47:11;;;;;;;86.82;34.17;;;0.70;2201.60;;;;;;4837488;29;20094;-81
2021/01/15 03:50:25;;;;;;;52.83;26.92;;;0.70;2201.60;;;;;;4816074;29;20440;-82
2021/01/15 04:25:42;;;;;;;26.02;15.07;;;0.60;2201.60;;;;;;4784157;30;20155;-81
2021/01/15 04:29:04;;;;;;;35.47;16.25;;;0.70;2201.60;;;;;;4779305;30;20043;-80
2021/01/15 04:32:44;;;;;;;32.47;16.60;;;0.70;2201.60;;;;;;4768038;30;20031;-81
2021/01/15 04:35:49;;;;;;;23.70;14.77;;;0.70;2201.60;;;;;;4713017;30;20132;-81
2021/01/15 04:39:10;;;;;;;34.50;18.85;;;0.70;2201.60;;;;;;4745484;30;20037;-80
2021/01/15 04:45:44;;;;;;;41.85;22.02;;;0.80;2201.60;;;;;;4751173;30;20508;-81
2021/01/15 04:52:38;;;;;;;19.00;11.00;;;0.80;2201.60;;;;;;4776898;30;20042;-81
2021/01/15 04:56:03;;;;;;;32.33;15.95;;;0.80;2201.60;;;;;;4776992;30;20063;-81
2021/01/15 04:59:26;;;;;;;25.77;13.10;;;0.70;2201.60;;;;;;4776223;29;20043;-80
2021/01/15 05:02:37;;;;;;;37.72;18.40;;;0.70;2201.60;;;;;;4828214;29;20102;-82
2021/01/15 05:06:28;;;;;;;26.92;14.02;;;0.70;2201.60;;;;;;4883215;29;20029;-83
2021/01/15 05:10:01;;;;;;;46.20;19.88;;;0.80;2150.40;;;;;;4879022;29;20043;-82
2021/01/15 05:13:35;;;;;;;47.08;20.33;;;0.90;2176.00;;;;;;4902434;29;20021;-81
2021/01/15 05:20:35;;;;;;;63.00;29.15;;;0.80;2176.00;;;;;;4907084;29;20104;-81
2021/01/15 05:30:11;;;;;;;40.78;21.35;;;0.90;2176.00;;;;;;4959664;29;20031;-82
2021/01/15 05:32:38;;;;;;;25.08;14.90;;;0.90;2201.60;;;;;;4909608;29;20035;-84
2021/01/15 05:35:47;;;;;;;74.63;37.55;;;25.60;2176.00;;;;;;4921543;29;20499;-83
2021/01/15 05:38:34;;;;;;;56.45;26.48;;;25.60;2176.00;;;;;;4935367;29;20042;-82
2021/01/15 05:41:48;;;;;;;47.08;24.60;;;25.60;2176.00;;;;;;4935873;29;20050;-83
2021/01/15 05:45:23;;;;;;;46.42;24.15;;;25.60;2150.40;;;;;;4939038;29;20043;-82
2021/01/15 05:48:31;;;;;;;22.67;12.25;;;25.60;2150.40;;;;;;4934872;29;20042;-83
2021/01/15 06:01:25;;;;;;;63.45;31.77;;;25.60;2150.40;;;;;;4974458;28;20050;-83
2021/01/15 06:07:43;;;;;;;81.78;43.38;;;25.60;2150.40;;;;;;4959357;28;20038;-83
2021/01/15 06:10:12;;;;;;;52.92;28.10;;;25.60;2176.00;;;;;;4976348;28;20023;-83
2021/01/15 06:13:41;;;;;;;62.80;33.72;;;25.60;2150.40;;;;;;4959549;28;20085;-84
2021/01/15 06:16:18;;;;;;;46.35;28.20;;;25.60;2150.40;;;;;;4899121;29;20315;-85
2021/01/15 06:19:07;;;;;;;;;;;25.70;2150.40;;;;;;4883436;29;20096;-85
2021/01/15 06:21:35;;;;;;;98.30;51.58;;;25.60;2176.00;;;;;;4957715;28;19917;-86
2021/01/15 06:24:12;;;;;;;56.75;30.95;;;25.60;2176.00;;;;;;4959755;28;20453;-86
2021/01/15 06:26:39;;;;;;;68.03;38.45;;;25.70;2150.40;;;;;;4959386;28;20382;-86
2021/01/15 06:29:08;;;;;;;58.83;35.80;;;25.60;2124.80;;;;;;4959382;28;20027;-85
2021/01/15 06:31:51;;;;;;;73.10;52.35;;;25.70;2150.40;;;;;;4959531;28;20031;-86
2021/01/15 06:34:18;;;;;;;139.48;73.68;;;0.80;2150.40;;;;;;4959529;28;20085;-86
2021/01/15 06:36:54;;;;;;;125.47;65.43;;;25.80;2176.00;;;;;;4959647;28;20039;-85
2021/01/15 06:39:22;;;;;;;105.88;57.80;;;25.70;2176.00;;;;;;4959287;28;20027;-88
2021/01/15 06:42:01;;;;;;;83.60;49.65;;;25.80;2176.00;;;;;;4959379;28;20073;-85
2021/01/15 06:44:27;;;;;;;107.43;61.65;;;25.90;2176.00;;;;;;4959377;28;20062;-85
2021/01/15 06:46:54;;;;;;;92.47;55.70;;;25.90;2176.00;;;;;;4959214;28;20027;-86
2021/01/15 06:49:30;;;;;;;83.10;49.10;;;25.90;2201.60;;;;;;4959479;28;20379;-86
2021/01/15 06:51:58;;;;;;;65.78;38.05;;;26.00;2201.60;;;;;;4959512;28;20093;-86
2021/01/15 06:54:27;;;;;;;74.35;42.40;;;25.90;2150.40;;;;;;4959114;28;20376;-85
2021/01/15 06:57:10;;;;;;;75.13;47.17;;;25.80;2150.40;;;;;;4958797;28;20050;-85
2021/01/15 06:59:37;;;;;;;62.75;38.25;;;25.90;2201.60;;;;;;4959479;28;20031;-85
2021/01/15 07:02:11;;;;;;;87.18;51.75;;;26.00;2176.00;;;;;;4957625;28;20081;-85
2021/01/15 07:05:00;;;;;;;78.38;50.78;;;26.00;2176.00;;;;;;4958773;28;20471;-83
2021/01/15 07:07:32;;;;;;;115.05;67.85;;;26.00;2150.40;;;;;;4958941;28;20123;-84
2021/01/15 07:10:03;;;;;;;75.43;49.60;;;26.00;2150.40;;;;;;4959023;28;20027;-87
2021/01/15 07:12:45;;;;;;;78.20;52.72;;;26.30;2124.80;;;;;;4959232;28;20034;-86
2021/01/15 07:15:17;;;;;;;96.75;64.25;;;26.00;2150.40;;;;;;4959245;28;20077;-85
2021/01/15 07:17:47;;;;;;;128.25;75.13;;;0.90;2176.00;;;;;;4958933;28;20058;-85
2021/01/15 07:20:15;;;;;;;136.23;85.95;;;26.10;2201.60;;;;;;4958959;28;20031;-85
2021/01/15 07:22:53;;;;;;;156.45;99.60;;;26.20;2176.00;;;;;;4958480;28;20048;-86
2021/01/15 07:25:20;;;;;;;176.00;109.95;;;26.30;2176.00;;;;;;4959278;28;20081;-85
2021/01/15 07:27:46;;;;;;;179.07;112.40;;;26.20;2201.60;;;;;;4959029;28;20463;-87
2021/01/15 07:30:27;;;;;;;197.63;123.22;;;26.20;2201.60;;;;;;4957399;28;20497;-86
2021/01/15 07:32:55;;;;;;;172.02;110.53;;;26.20;2201.60;;;;;;4958552;28;20035;-85
2021/01/15 07:35:25;;;;;;;181.90;108.32;;;26.40;2176.00;;;;;;4957873;28;20031;-85
2021/01/15 07:38:09;;;;;;;222.55;127.68;;;26.40;2176.00;;;;;;4958508;28;20027;-85
2021/01/15 07:40:36;;;;;;;239.00;139.20;;;26.40;2176.00;;;;;;4958819;28;20505;-85
2021/01/15 07:43:03;;;;;;;213.85;131.63;;;26.50;2176.00;;;;;;4958464;28;20117;-84
2021/01/15 07:45:31;;;;;;;197.82;126.10;;;26.50;2201.60;;;;;;4958469;28;20121;-85
2021/01/15 07:48:02;;;;;;;196.18;122.28;;;26.50;2176.00;;;;;;4958498;28;20032;-85
2021/01/15 07:50:41;;;;;;;150.07;97.00;;;26.40;2176.00;;;;;;4958766;28;20390;-86
2021/01/15 07:53:33;;;;;;;131.82;79.63;;;26.20;2201.60;;;;;;4958555;28;20030;-85
2021/01/15 07:56:01;;;;;;;135.13;84.57;;;26.20;2201.60;;;;;;4958404;28;20027;-87
2021/01/15 07:58:41;;;;;;;153.98;94.28;;;26.20;2201.60;;;;;;4957853;28;20078;-86
2021/01/15 08:01:13;;;;;;;146.07;91.38;;;26.30;2201.60;;;;;;4957602;28;20481;-86
2021/01/15 08:03:46;;;;;;;122.10;77.35;;;26.40;2176.00;;;;;;4958578;28;20039;-85
2021/01/15 08:06:12;;;;;;;;;;;26.40;2150.40;;;;;;4957951;28;20034;-84
2021/01/15 08:08:59;;;;;;;74.07;49.72;;;26.50;2099.20;;;;;;4958236;28;19960;-85
2021/01/15 08:11:29;;;;;;;70.32;49.72;;;26.50;2124.80;;;;;;4958103;28;20027;-88
2021/01/15 08:14:20;;;;;;;77.85;49.28;;;51.20;2150.40;;;;;;4953563;28;20035;-84
2021/01/15 08:16:47;;;;;;;65.63;44.22;;;51.40;2150.40;;;;;;4954352;29;20427;-84
2021/01/15 08:19:15;;;;;;;84.65;54.42;;;51.40;2124.80;;;;;;4937585;29;20028;-81
2021/01/15 08:21:41;;;;;;;108.68;70.45;;;51.40;2099.20;;;;;;4938630;29;20027;-84
2021/01/15 08:24:07;;;;;;;104.47;66.88;;;51.30;2150.40;;;;;;4938406;29;20035;-80
2021/01/15 08:26:56;;;;;;;110.97;71.43;;;51.40;2176.00;;;;;;4938314;29;20122;-83
2021/01/15 08:29:28;;;;;;;95.88;66.07;;;51.50;2176.00;;;;;;4938634;29;20035;-81
2021/01/15 08:31:59;;;;;;;125.82;72.82;;;51.50;2150.40;;;;;;4938812;29;20119;-86
2021/01/15 08:34:32;;;;;;;92.97;57.53;;;51.60;2150.40;;;;;;4940164;29;20487;-82
2021/01/15 08:37:00;;;;;;;68.95;50.83;;;51.60;2150.40;;;;;;4942279;29;20110;-81
2021/01/15 08:39:26;;;;;;;76.18;50.35;;;51.60;2150.40;;;;;;4941970;29;20034;-83
2021/01/15 08:41:59;;;;;;;88.35;63.03;;;51.60;2124.80;;;;;;4942326;29;20023;-83
2021/01/15 08:44:34;;;;;;;65.18;46.70;;;51.70;2099.20;;;;;;4942302;29;20031;-85
2021/01/15 08:47:07;;;;;;;118.72;82.30;;;51.70;2099.20;;;;;;4941904;29;20551;-83
2021/01/15 08:49:33;;;;;;;100.63;69.72;;;51.70;2124.80;;;;;;4943089;29;20035;-83
2021/01/15 08:52:00;;;;;;;95.15;61.55;;;51.70;2124.80;;;;;;4942061;29;20376;-84
2021/01/15 08:54:30;;;;;;;99.55;65.50;;;51.80;2099.20;;;;;;4941688;29;20062;-84
2021/01/15 08:56:57;;;;;;;59.00;42.50;;;51.80;2099.20;;;;;;4941941;29;20554;-85
2021/01/15 08:59:26;;;;;;;63.88;43.83;;;51.90;2099.20;;;;;;4942376;29;20034;-84
2021/01/15 09:01:58;;;;;;;66.88;49.20;;;52.00;2073.60;;;;;;4941820;29;20038;-84
2021/01/15 09:04:27;;;;;;;47.03;31.63;;;52.10;2073.60;;;;;;4942438;29;20035;-84
2021/01/15 09:06:54;;;;;;;62.78;40.53;;;76.80;2022.40;;;;;;4958840;29;20027;-83
2021/01/15 09:09:22;;;;;;;24.13;16.92;;;52.10;1996.80;;;;;;4942130;29;20036;-85
2021/01/15 09:11:49;;;;;;;34.42;22.88;;;52.00;1971.20;;;;;;4942120;29;20126;-87
2021/01/15 09:14:23;;;;;;;33.58;23.73;;;52.10;2048.00;;;;;;4941636;29;20035;-86
2021/01/15 09:16:50;;;;;;;33.97;25.48;;;52.10;2022.40;;;;;;4953862;28;20394;-86
2021/01/15 09:19:16;;;;;;;50.55;36.15;;;52.10;2022.40;;;;;;4961642;28;20031;-86
2021/01/15 09:21:46;;;;;;;33.70;28.05;;;52.10;2073.60;;;;;;4960037;28;20027;-87
2021/01/15 09:24:12;;;;;;;43.33;31.10;;;52.00;1945.60;;;;;;4961173;28;20077;-86
2021/01/15 09:26:37;;;;;;;55.00;35.40;;;52.10;2022.40;;;;;;4961226;28;20035;-85
2021/01/15 09:29:03;;;;;;;67.15;41.97;;;52.10;1996.80;;;;;;4960694;28;20033;-86
2021/01/15 09:31:29;;;;;;;97.15;59.58;;;76.80;2048.00;;;;;;4960977;28;20034;-85
2021/01/15 09:33:55;;;;;;;70.15;45.30;;;76.90;2022.40;;;;;;4960241;28;20098;-85
2021/01/15 09:36:26;;;;;;;56.28;38.25;;;76.90;2022.40;;;;;;4960728;28;20034;-87
2021/01/15 09:38:54;;;;;;;64.13;44.60;;;76.90;1996.80;;;;;;4960455;28;20062;-85
2021/01/15 09:41:20;;;;;;;55.97;40.38;;;76.80;1945.60;;;;;;4977949;28;20023;-88
2021/01/15 09:43:46;;;;;;;92.40;59.30;;;77.00;1971.20;;;;;;4957385;28;20114;-87
2021/01/15 09:46:26;;;;;;;89.45;62.00;;;77.10;1996.80;;;;;;4959530;28;20122;-85
2021/01/15 09:48:53;;;;;;;56.53;41.03;;;77.10;1996.80;;;;;;4959759;28;20442;-85
2021/01/15 09:51:26;;;;;;;70.35;41.92;;;77.10;2048.00;;;;;;4960331;28;20027;-84
2021/01/15 09:53:53;;;;;;;61.58;40.85;;;77.10;1945.60;;;;;;4960194;28;20042;-85
2021/01/15 09:56:23;;;;;;;47.28;30.77;;;77.00;1971.20;;;;;;4960019;28;20443;-85
2021/01/15 09:58:49;;;;;;;44.33;29.60;;;76.90;1945.60;;;;;;4977800;28;20097;-84
2021/01/15 10:01:15;;;;;;;43.38;28.30;;;76.80;1971.20;;;;;;4960168;28;20038;-86
2021/01/15 10:03:41;;;;;;;55.95;36.58;;;76.90;1996.80;;;;;;4977181;28;20031;-84
2021/01/15 10:06:06;;;;;;;60.58;33.28;;;76.80;1971.20;;;;;;4959958;28;20026;-84
2021/01/15 10:08:32;;;;;;;47.17;29.33;;;76.90;1971.20;;;;;;4960080;28;20029;-82
2021/01/15 10:10:58;;;;;;;76.38;39.42;;;76.90;1920.00;;;;;;4959656;28;20462;-87
2021/01/15 10:13:24;;;;;;;29.50;21.33;;;76.90;1945.60;;;;;;4977154;28;20476;-84
2021/01/15 10:15:49;;;;;;;46.75;32.05;;;76.90;1894.40;;;;;;4977069;28;20050;-85
2021/01/15 10:18:15;;;;;;;34.88;24.42;;;76.90;1920.00;;;;;;4976839;28;20382;-85
2021/01/15 10:20:45;;;;;;;30.58;19.50;;;77.00;1920.00;;;;;;4958514;28;20035;-81
2021/01/15 10:23:11;;;;;;;49.63;30.02;;;77.00;1868.80;;;;;;4959602;28;20391;-85
2021/01/15 10:25:39;;;;;;;60.22;38.47;;;77.10;1920.00;;;;;;4958277;28;20117;-83
2021/01/15 10:28:05;;;;;;;59.35;41.58;;;77.10;1945.60;;;;;;4960808;28;20101;-86
2021/01/15 10:30:32;;;;;;;77.85;45.95;;;77.00;1920.00;;;;;;4959971;28;20462;-83
2021/01/15 10:32:58;;;;;;;111.97;64.78;;;76.90;1945.60;;;;;;4959727;28;20031;-84
2021/01/15 10:35:24;;;;;;;72.70;42.42;;;52.00;1945.60;;;;;;4959343;28;20493;-86
2021/01/15 10:37:50;;;;;;;58.20;36.70;;;76.90;1920.00;;;;;;4959342;28;20026;-83
2021/01/15 10:40:15;;;;;;;51.92;33.38;;;76.90;1945.60;;;;;;4959394;28;20524;-81
2021/01/15 10:42:43;;;;;;;79.40;49.53;;;76.80;1971.20;;;;;;4958984;28;20371;-84
2021/01/15 10:45:09;;;;;;;49.42;32.63;;;76.80;1996.80;;;;;;4959906;28;20478;-84
2021/01/15 10:47:40;;;;;;;40.92;27.52;;;77.00;1996.80;;;;;;4959265;28;20038;-85
2021/01/15 10:50:08;;;;;;;73.28;42.83;;;76.80;2022.40;;;;;;4959157;28;20383;-84
2021/01/15 10:52:34;;;;;;;32.47;21.42;;;76.90;2048.00;;;;;;4959204;28;20081;-84
2021/01/15 10:55:00;;;;;;;46.28;28.40;;;52.10;1996.80;;;;;;4959105;28;20030;-83
2021/01/15 10:57:25;;;;;;;47.38;29.88;;;76.80;1971.20;;;;;;4958278;28;20497;-86
2021/01/15 10:59:51;;;;;;;56.30;48.47;;;76.80;1996.80;;;;;;4959056;28;20027;-84
2021/01/15 11:02:17;;;;;;;62.65;44.55;;;52.10;1996.80;;;;;;4958770;28;20034;-82
2021/01/15 11:04:43;;;;;;;63.28;40.25;;;76.80;1996.80;;;;;;4958923;28;20069;-83
2021/01/15 11:07:08;;;;;;;66.85;42.85;;;76.90;2022.40;;;;;;4959254;28;20427;-84
2021/01/15 11:09:34;;;;;;;40.67;26.67;;;77.00;1996.80;;;;;;4958927;28;20389;-82
2021/01/15 11:12:00;;;;;;;77.63;53.15;;;76.90;1971.20;;;;;;4959567;28;20027;-83
2021/01/15 11:14:26;;;;;;;75.93;48.97;;;77.10;2022.40;;;;;;4958783;28;20363;-82
2021/01/15 11:16:53;;;;;;;44.05;31.00;;;77.10;2048.00;;;;;;4958446;28;20037;-82
2021/01/15 11:19:19;;;;;;;36.55;24.88;;;77.20;2022.40;;;;;;4958742;28;20118;-85
2021/01/15 11:21:45;;;;;;;48.03;32.78;;;77.10;1996.80;;;;;;4958356;28;20062;-83
2021/01/15 11:24:11;;;;;;;52.85;35.55;;;77.00;1971.20;;;;;;4975377;28;20084;-83
2021/01/15 11:26:37;;;;;;;49.90;30.75;;;76.90;1996.80;;;;;;4958510;28;20030;-84
2021/01/15 11:29:08;;;;;;;59.92;34.47;;;76.90;1971.20;;;;;;4958117;28;20023;-82
2021/01/15 11:31:34;;;;;;;30.70;22.70;;;76.90;1996.80;;;;;;4958221;28;20031;-84
2021/01/15 11:34:02;;;;;;;32.25;21.42;;;76.90;1945.60;;;;;;4958612;28;20062;-85
2021/01/15 11:36:31;;;;;;;64.88;44.08;;;52.10;1945.60;;;;;;4958523;28;20382;-84
2021/01/15 11:39:07;;;;;;;39.63;27.73;;;76.80;1971.20;;;;;;4958329;28;20038;-84
2021/01/15 11:41:33;;;;;;;45.75;32.58;;;76.90;1996.80;;;;;;4958653;28;20030;-84
2021/01/15 11:43:59;;;;;;;59.92;41.30;;;76.90;1996.80;;;;;;4958450;28;20034;-85
2021/01/15 11:46:25;;;;;;;48.17;36.42;;;76.90;2022.40;;;;;;4958457;28;20414;-86
2021/01/15 11:48:51;;;;;;;47.55;32.05;;;76.90;2022.40;;;;;;4958277;28;20096;-85
2021/01/15 11:51:16;;;;;;;39.60;30.58;;;77.00;2022.40;;;;;;4957906;28;20026;-84
2021/01/15 11:53:42;;;;;;;43.55;31.60;;;77.00;1996.80;;;;;;4969491;28;20047;-83
2021/01/15 11:56:09;;;;;;;50.47;32.60;;;77.00;2022.40;;;;;;4950362;28;20027;-82
2021/01/15 11:58:36;;;;;;;54.80;34.15;;;76.90;1996.80;;;;;;4955985;28;20054;-84
2021/01/15 12:01:03;;;;;;;39.30;27.40;;;77.00;1996.80;;;;;;4959921;28;20093;-84
2021/01/15 12:03:29;;;;;;;40.78;32.50;;;76.80;2022.40;;;;;;4955576;29;20034;-83
2021/01/15 12:05:55;;;;;;;60.90;43.13;;;76.90;2048.00;;;;;;4937887;29;20027;-82
2021/01/15 12:08:23;;;;;;;56.65;41.53;;;76.90;2073.60;;;;;;4938276;29;20050;-87
2021/01/15 12:10:55;;;;;;;52.80;37.92;;;77.00;2048.00;;;;;;4938467;29;20043;-84
2021/01/15 12:13:22;;;;;;;71.18;47.42;;;77.10;2048.00;;;;;;4938134;29;20158;-79
2021/01/15 12:15:52;;;;;;;61.28;40.30;;;52.10;2022.40;;;;;;4938729;29;20110;-81
2021/01/15 12:18:18;;;;;;;51.42;35.15;;;77.00;2073.60;;;;;;4938798;29;20034;-84
2021/01/15 12:20:44;;;;;;;55.28;35.92;;;77.00;2048.00;;;;;;4955077;29;20038;-83
2021/01/15 12:23:11;;;;;;;56.42;37.00;;;77.10;2022.40;;;;;;4938715;29;20031;-86
2021/01/15 12:25:41;;;;;;;85.22;53.72;;;77.10;2022.40;;;;;;4938705;29;20024;-85
2021/01/15 12:28:12;;;;;;;51.38;33.10;;;77.10;1945.60;;;;;;4938530;29;20034;-86
2021/01/15 12:30:38;;;;;;;47.17;30.13;;;77.20;1971.20;;;;;;4939501;29;20468;-82
2021/01/15 12:33:15;;;;;;;63.88;39.50;;;77.50;1996.80;;;;;;4938828;29;20471;-84
2021/01/15 12:35:45;;;;;;;57.75;37.83;;;77.30;2022.40;;;;;;4939382;29;20407;-86
2021/01/15 12:38:13;;;;;;;52.30;34.15;;;77.40;1996.80;;;;;;4939551;29;20371;-86
2021/01/15 12:40:40;;;;;;;144.55;86.82;;;102.60;1971.20;;;;;;4938820;29;20114;-88
2021/01/15 12:43:07;;;;;;;51.15;34.42;;;102.60;1920.00;;;;;;4938943;29;20078;-83
2021/01/15 12:45:38;;;;;;;146.95;81.10;;;102.50;1894.40;;;;;;4938528;29;20451;-84
2021/01/15 12:48:05;;;;;;;106.13;64.88;;;77.70;1971.20;;;;;;4938407;29;20031;-84
2021/01/15 12:50:31;;;;;;;69.53;45.38;;;102.40;1945.60;;;;;;4938546;29;20031;-86
2021/01/15 12:52:58;;;;;;;66.32;48.35;;;77.70;1945.60;;;;;;4939275;29;20357;-85
2021/01/15 12:55:26;;;;;;;73.55;51.13;;;77.50;1920.00;;;;;;4955206;29;20097;-85
2021/01/15 12:57:53;;;;;;;52.20;39.88;;;77.50;1971.20;;;;;;4938232;29;20058;-81
2021/01/15 13:00:20;;;;;;;50.45;34.88;;;77.50;1971.20;;;;;;4938768;29;20043;-84
2021/01/15 13:02:45;;;;;;;35.60;27.67;;;77.40;1996.80;;;;;;4938070;29;20023;-83
2021/01/15 13:05:12;;;;;;;34.72;30.95;;;77.30;1945.60;;;;;;4938507;29;20463;-83
2021/01/15 13:07:38;;;;;;;59.30;35.25;;;77.20;1945.60;;;;;;4938717;29;20217;-85
2021/01/15 13:10:09;;;;;;;132.60;62.42;;;77.20;1945.60;;;;;;4943473;28;20110;-84
2021/01/15 13:12:36;;;;;;;103.57;57.15;;;77.30;1971.20;;;;;;4957329;28;20158;-85
2021/01/15 13:15:04;;;;;;;97.35;58.97;;;77.30;1971.20;;;;;;4956618;28;20467;-82
2021/01/15 13:17:29;;;;;;;84.63;45.78;;;77.30;1971.20;;;;;;4957142;28;20022;-83
2021/01/15 13:19:55;;;;;;;88.75;57.17;;;77.30;1945.60;;;;;;4975400;28;20023;-85
2021/01/15 13:22:21;;;;;;;63.63;40.72;;;77.20;1971.20;;;;;;4977593;28;20688;-86
2021/01/15 13:24:47;;;;;;;54.55;35.70;;;77.30;1971.20;;;;;;4960336;28;20525;-84
2021/01/15 13:27:12;;;;;;;83.25;47.58;;;77.20;1945.60;;;;;;4960905;28;20062;-83
2021/01/15 13:29:39;;;;;;;112.10;67.70;;;77.10;1945.60;;;;;;4960410;28;20034;-83
2021/01/15 13:32:06;;;;;;;62.13;40.35;;;77.10;1971.20;;;;;;4947848;29;20062;-82
2021/01/15 13:34:32;;;;;;;56.40;40.53;;;77.10;1971.20;;;;;;4942084;29;20031;-83
2021/01/15 13:36:59;;;;;;;65.57;45.38;;;77.00;1945.60;;;;;;4940210;29;20078;-85
2021/01/15 13:39:25;;;;;;;33.80;23.00;;;76.90;1996.80;;;;;;4941259;29;20522;-81
2021/01/15 13:41:50;;;;;;;34.72;24.70;;;76.90;1996.80;;;;;;4941816;29;20027;-85
2021/01/15 13:44:16;;;;;;;62.22;43.95;;;76.90;2022.40;;;;;;4940985;29;20089;-85
2021/01/15 13:46:42;;;;;;;60.95;39.50;;;76.90;2048.00;;;;;;4941203;29;20031;-83
2021/01/15 13:49:08;;;;;;;69.82;47.58;;;76.90;2048.00;;;;;;4941252;29;20031;-84
2021/01/15 13:51:34;;;;;;;66.53;44.75;;;76.90;2048.00;;;;;;4957890;29;20023;-82
2021/01/15 13:53:59;;;;;;;63.28;42.75;;;76.90;2022.40;;;;;;4941039;29;20118;-84
2021/01/15 13:56:25;;;;;;;50.28;34.45;;;76.80;2048.00;;;;;;4941312;29;20027;-84
2021/01/15 13:58:51;;;;;;;49.97;31.48;;;52.10;1996.80;;;;;;4940679;29;20483;-85
2021/01/15 14:01:17;;;;;;;63.25;40.33;;;76.80;1996.80;;;;;;4941086;29;20392;-87
2021/01/15 14:03:45;;;;;;;56.67;36.85;;;52.10;2022.40;;;;;;4941739;29;20355;-83
2021/01/15 14:06:11;;;;;;;61.15;40.05;;;76.80;2022.40;;;;;;4958134;29;20050;-81
2021/01/15 14:08:37;;;;;;;80.32;51.00;;;52.10;1996.80;;;;;;4940413;29;20460;-83
2021/01/15 14:11:03;;;;;;;60.83;41.65;;;52.10;2048.00;;;;;;4940332;29;20079;-85
2021/01/15 14:13:28;;;;;;;60.30;39.10;;;52.10;2048.00;;;;;;4940727;29;20035;-83
2021/01/15 14:15:54;;;;;;;55.17;37.60;;;52.10;2022.40;;;;;;4940617;29;20126;-85
2021/01/15 14:18:20;;;;;;;60.10;40.65;;;76.80;2048.00;;;;;;4957356;29;20027;-84
2021/01/15 14:20:46;;;;;;;50.10;35.47;;;76.80;2022.40;;;;;;4940673;29;20094;-84
2021/01/15 14:23:11;;;;;;;60.10;41.15;;;76.90;1996.80;;;;;;4940046;29;20031;-82
2021/01/15 14:25:37;;;;;;;56.42;38.50;;;76.90;2022.40;;;;;;4939959;29;20415;-84
2021/01/15 14:28:03;;;;;;;38.17;28.15;;;76.90;2022.40;;;;;;4940467;29;20035;-83
2021/01/15 14:30:29;;;;;;;41.67;31.00;;;52.10;1996.80;;;;;;4941332;29;20127;-85
2021/01/15 14:32:55;;;;;;;55.22;41.78;;;76.80;2022.40;;;;;;4956385;28;20090;-85
2021/01/15 14:35:23;;;;;;;110.43;67.55;;;76.90;2073.60;;;;;;4940164;29;20090;-85
2021/01/15 14:37:51;;;;;;;93.25;60.22;;;76.80;2048.00;;;;;;4940639;29;20114;-85
2021/01/15 14:40:18;;;;;;;73.68;49.28;;;76.80;2073.60;;;;;;4940049;29;20121;-86
2021/01/15 14:42:44;;;;;;;75.72;50.28;;;76.80;2048.00;;;;;;4957514;29;20066;-87
2021/01/15 14:45:11;;;;;;;64.22;43.13;;;76.90;2073.60;;;;;;4957522;29;20467;-85
2021/01/15 14:47:38;;;;;;;67.43;41.95;;;76.90;2073.60;;;;;;4940020;29;20122;-84
2021/01/15 14:50:05;;;;;;;65.55;47.13;;;76.80;2073.60;;;;;;4940064;29;20038;-83
2021/01/15 14:52:31;;;;;;;71.63;47.05;;;76.80;2073.60;;;;;;4940542;29;20146;-83
2021/01/15 14:54:57;;;;;;;74.72;48.20;;;52.10;2048.00;;;;;;4939631;29;20040;-83
2021/01/15 14:57:23;;;;;;;90.97;56.17;;;76.80;2073.60;;;;;;4939859;29;20134;-85
2021/01/15 14:59:49;;;;;;;127.18;73.35;;;76.80;2073.60;;;;;;4943200;28;20462;-86
2021/01/15 15:02:15;;;;;;;132.65;74.90;;;52.10;2048.00;;;;;;4976140;28;20053;-84
2021/01/15 15:04:41;;;;;;;114.25;68.15;;;52.10;2099.20;;;;;;4958058;28;20034;-84
2021/01/15 15:07:06;;;;;;;101.30;63.60;;;52.10;2099.20;;;;;;4958507;28;20038;-85
2021/01/15 15:09:32;;;;;;;92.55;60.58;;;52.10;2099.20;;;;;;4958856;28;20026;-87
2021/01/15 15:11:59;;;;;;;83.05;52.40;;;52.10;2099.20;;;;;;4958793;28;20046;-85
2021/01/15 15:14:25;;;;;;;69.43;47.20;;;52.10;2099.20;;;;;;4959141;28;20039;-84
2021/01/15 15:16:51;;;;;;;87.88;55.20;;;52.10;2099.20;;;;;;4958881;28;20517;-87
2021/01/15 15:19:17;;;;;;;74.70;52.00;;;52.10;2124.80;;;;;;4958450;28;20423;-86
2021/01/15 15:21:43;;;;;;;69.22;48.22;;;52.10;2124.80;;;;;;4958492;28;20033;-83
2021/01/15 15:24:09;;;;;;;82.95;55.78;;;52.10;2124.80;;;;;;4959464;28;20058;-83
2021/01/15 15:26:35;;;;;;;83.38;53.58;;;52.10;2124.80;;;;;;4953697;28;20479;-87
2021/01/15 15:29:07;;;;;;;88.05;58.63;;;52.10;2124.80;;;;;;4946832;28;20096;-82
2021/01/15 15:31:36;;;;;;;89.13;59.65;;;52.10;2124.80;;;;;;4965755;28;20145;-84
2021/01/15 15:34:04;;;;;;;121.00;78.28;;;52.00;2150.40;;;;;;4951907;29;20039;-85
2021/01/15 15:36:30;;;;;;;166.50;113.28;;;52.00;2150.40;;;;;;4937176;29;20493;-85
2021/01/15 15:38:56;;;;;;;535.67;328.02;;;51.90;2150.40;;;;;;4937916;29;20058;-83
2021/01/15 15:41:21;;;;;;;345.70;224.30;;;51.90;2150.40;;;;;;4938211;29;20073;-85
2021/01/15 15:43:47;;;;;;;751.90;420.42;;;51.80;2150.40;;;;;;4955657;28;20042;-85
2021/01/15 15:46:19;;;;;;;347.63;178.05;;;51.80;2150.40;;;;;;4938561;29;20035;-84
2021/01/15 15:48:47;;;;;;;187.50;108.97;;;51.80;2176.00;;;;;;4938318;29;20028;-84
2021/01/15 15:51:17;;;;;;;193.93;113.80;;;51.80;2201.60;;;;;;4938167;29;20356;-83
2021/01/15 15:53:48;;;;;;;139.10;86.28;;;51.90;2201.60;;;;;;4948347;28;20038;-85
2021/01/15 15:56:19;;;;;;;150.25;95.32;;;51.80;2176.00;;;;;;4954862;28;20425;-82
2021/01/15 15:58:45;;;;;;;158.93;99.93;;;51.90;2176.00;;;;;;4938817;28;20055;-85